Time;durP1;ratioP1;P1;durP2;ratioP2;P2;SDS_P1;SDS_P2;PMS_P1;PMS_P2;Temp;Humidity;BMP_temperature;BMP_pressure;BME280_temperature;BME280_humidity;BME280_pressure;Samples;Min_cycle;Max_cycle;Signal;HPM_P1;HPM_P2
2023/06/24 00:01:51;;;;;;;4.68;2.97;;;;;;;24.70;50.74;102365.59;5030406;28;20098;-69
2023/06/24 00:04:18;;;;;;;5.53;3.42;;;;;;;24.72;51.10;102371.63;5033409;28;20041;-68
2023/06/24 00:06:44;;;;;;;4.70;3.00;;;;;;;24.69;50.86;102370.09;5034239;28;20464;-71
2023/06/24 00:09:09;;;;;;;6.03;3.30;;;;;;;24.71;50.81;102368.13;5034532;28;20485;-70
2023/06/24 00:11:35;;;;;;;5.87;3.60;;;;;;;24.71;50.75;102369.97;5033769;28;20042;-70
2023/06/24 00:14:00;;;;;;;4.78;2.78;;;;;;;24.71;50.59;102380.63;5034655;28;20681;-71
2023/06/24 00:16:28;;;;;;;4.82;3.17;;;;;;;24.68;51.06;102368.41;5034494;28;20033;-69
2023/06/24 00:19:01;;;;;;;5.05;3.50;;;;;;;24.68;50.77;102380.88;5034186;28;20412;-71
2023/06/24 00:21:29;;;;;;;5.03;3.10;;;;;;;24.68;50.60;102384.38;5034522;28;20461;-71
2023/06/24 00:23:58;;;;;;;5.38;3.33;;;;;;;24.63;51.09;102375.94;5034413;28;20083;-69
2023/06/24 00:26:24;;;;;;;5.28;3.33;;;;;;;24.67;50.87;102376.53;5033936;28;20032;-70
2023/06/24 00:28:49;;;;;;;5.63;3.35;;;;;;;24.68;50.76;102375.56;5033975;28;20044;-69
2023/06/24 00:31:15;;;;;;;5.30;3.50;;;;;;;24.66;50.67;102382.81;5034125;28;20044;-69
2023/06/24 00:33:41;;;;;;;4.63;2.97;;;;;;;24.66;50.97;102373.03;5033578;28;20465;-70
2023/06/24 00:36:08;;;;;;;5.90;3.45;;;;;;;24.67;51.04;102387.19;5034007;28;20106;-69
2023/06/24 00:38:33;;;;;;;4.75;3.05;;;;;;;24.67;50.88;102381.84;5034479;28;20158;-71
2023/06/24 00:40:59;;;;;;;5.15;3.28;;;;;;;24.67;50.86;102381.84;5033390;28;20124;-70
2023/06/24 00:43:24;;;;;;;5.32;3.20;;;;;;;24.66;50.89;102380.16;5033276;28;20421;-70
2023/06/24 00:45:50;;;;;;;6.43;3.28;;;;;;;24.64;50.82;102380.28;5033740;28;20028;-69
2023/06/24 00:48:16;;;;;;;5.00;3.20;;;;;;;24.65;50.97;102383.81;5033386;28;20374;-68
2023/06/24 00:50:45;;;;;;;6.63;3.63;;;;;;;24.63;50.96;102386.63;5033444;28;20044;-69
2023/06/24 00:53:11;;;;;;;4.72;2.92;;;;;;;24.63;50.69;102384.78;5033467;28;20025;-68
2023/06/24 00:55:37;;;;;;;5.70;2.95;;;;;;;24.62;50.65;102391.09;5033748;28;20087;-69
2023/06/24 00:58:03;;;;;;;4.80;3.47;;;;;;;24.61;50.73;102392.06;5033539;28;20633;-68
2023/06/24 01:00:28;;;;;;;5.32;4.00;;;;;;;24.62;50.80;102393.78;5033794;28;20393;-69
2023/06/24 01:02:53;;;;;;;5.32;3.20;;;;;;;24.57;50.69;102374.63;5033274;28;20030;-70
2023/06/24 01:05:23;;;;;;;5.13;3.38;;;;;;;24.63;50.86;102376.78;5033687;28;20060;-68
2023/06/24 01:07:54;;;;;;;5.35;3.45;;;;;;;24.60;50.66;102373.53;5033513;28;20109;-69
2023/06/24 01:10:20;;;;;;;5.03;3.55;;;;;;;24.62;50.98;102374.25;5033878;28;20029;-70
2023/06/24 01:12:45;;;;;;;6.45;3.40;;;;;;;24.59;50.95;102370.03;5032994;28;20029;-70
2023/06/24 01:15:11;;;;;;;5.90;3.20;;;;;;;24.61;50.68;102375.25;5032430;28;20036;-69
2023/06/24 01:17:44;;;;;;;5.25;3.28;;;;;;;24.61;50.51;102376.06;5033023;28;20053;-69
2023/06/24 01:20:29;;;;;;;5.43;3.63;;;;;;;24.59;50.68;102370.03;5033476;28;20029;-70
2023/06/24 01:23:11;;;;;;;6.45;3.10;;;;;;;24.57;50.83;102366.66;5032831;28;20041;-69
2023/06/24 01:26:01;;;;;;;4.93;3.38;;;;;;;24.60;50.35;102373.53;5033330;28;20044;-69
2023/06/24 01:28:42;;;;;;;5.80;3.45;;;;;;;24.58;50.57;102365.69;5033132;28;20026;-70
2023/06/24 01:31:32;;;;;;;6.25;3.72;;;;;;;24.58;50.57;102363.00;5032899;28;20044;-69
2023/06/24 01:34:16;;;;;;;5.43;3.40;;;;;;;24.58;50.48;102362.19;5033161;28;20033;-68
2023/06/24 01:36:47;;;;;;;5.40;3.40;;;;;;;24.57;50.74;102355.16;5033304;28;20628;-68
2023/06/24 01:39:18;;;;;;;4.97;3.20;;;;;;;24.55;50.30;102363.25;5033321;28;20033;-70
2023/06/24 01:41:49;;;;;;;5.15;3.35;;;;;;;24.56;50.37;102364.06;5032950;28;20112;-70
2023/06/24 01:44:17;;;;;;;4.97;3.20;;;;;;;24.55;50.64;102357.91;5033136;28;20095;-70
2023/06/24 01:46:46;;;;;;;5.53;3.55;;;;;;;24.54;50.36;102358.03;5032828;28;20119;-71
2023/06/24 01:49:14;;;;;;;5.15;3.47;;;;;;;24.54;50.29;102366.88;5032905;28;20076;-70
2023/06/24 01:51:42;;;;;;;4.85;3.20;;;;;;;24.55;50.69;102357.06;5023501;28;20040;-70
2023/06/24 01:54:13;;;;;;;5.38;3.42;;;;;;;24.53;50.65;102365.19;5032334;28;20033;-70
2023/06/24 01:56:42;;;;;;;5.32;3.30;;;;;;;24.54;50.25;102360.72;5032312;28;20983;-71
2023/06/24 01:59:08;;;;;;;5.78;3.42;;;;;;;24.53;50.27;102357.22;5030819;28;20060;-69
2023/06/24 02:01:35;;;;;;;5.43;3.60;;;;;;;24.52;50.51;102357.34;5033067;28;20116;-71
2023/06/24 02:04:03;;;;;;;6.10;3.55;;;;;;;24.52;50.50;102354.66;5032497;28;20037;-71
2023/06/24 02:06:29;;;;;;;5.15;3.20;;;;;;;24.52;49.96;102352.84;5030868;28;20940;-69
2023/06/24 02:08:58;;;;;;;5.97;3.45;;;;;;;24.52;50.37;102349.34;5032331;28;20035;-69
2023/06/24 02:11:24;;;;;;;5.57;3.40;;;;;;;24.49;50.35;102342.44;5032313;28;20034;-70
2023/06/24 02:13:53;;;;;;;5.93;3.33;;;;;;;24.49;49.86;102344.28;5031867;28;20059;-69
2023/06/24 02:16:21;;;;;;;6.35;3.65;;;;;;;24.51;49.88;102347.63;5031488;28;20385;-68
2023/06/24 02:18:48;;;;;;;4.97;3.15;;;;;;;24.51;49.61;102348.47;5032064;28;20049;-68
2023/06/24 02:21:15;;;;;;;5.20;3.38;;;;;;;24.51;49.99;102348.47;5032098;28;20029;-69
2023/06/24 02:23:42;;;;;;;6.32;3.40;;;;;;;24.50;49.70;102348.59;5031449;28;20034;-68
2023/06/24 02:26:09;;;;;;;6.28;3.75;;;;;;;24.46;49.92;102342.69;5032298;28;20087;-70
2023/06/24 02:28:37;;;;;;;5.53;3.13;;;;;;;24.50;49.88;102353.94;5031755;28;20033;-69
2023/06/24 02:31:03;;;;;;;5.13;3.20;;;;;;;24.50;50.00;102346.81;5031855;28;20128;-71
2023/06/24 02:33:28;;;;;;;4.95;3.40;;;;;;;24.48;49.84;102351.41;5031329;28;20043;-69
2023/06/24 02:35:53;;;;;;;5.03;3.50;;;;;;;24.47;50.11;102355.06;5031597;28;20116;-69
2023/06/24 02:38:19;;;;;;;5.45;3.58;;;;;;;24.48;49.76;102350.56;5031925;28;20462;-69
2023/06/24 02:40:49;;;;;;;6.13;3.47;;;;;;;24.46;49.68;102356.03;5031800;28;20025;-70
2023/06/24 02:43:14;;;;;;;4.70;3.03;;;;;;;24.49;50.05;102352.28;5032158;28;20444;-70
2023/06/24 02:45:40;;;;;;;6.10;3.72;;;;;;;24.46;49.83;102350.69;5030454;28;20037;-69
2023/06/24 02:48:08;;;;;;;5.40;3.70;;;;;;;24.47;49.79;102344.41;5031568;28;20036;-68
2023/06/24 02:50:35;;;;;;;4.97;3.33;;;;;;;24.46;49.74;102340.03;5031364;28;20112;-70
2023/06/24 02:53:01;;;;;;;5.50;3.63;;;;;;;24.47;49.76;102340.88;5029965;28;20496;-69
2023/06/24 02:55:27;;;;;;;4.45;2.80;;;;;;;24.46;49.64;102345.38;5031431;28;20029;-68
2023/06/24 02:57:53;;;;;;;5.78;3.60;;;;;;;24.43;49.67;102348.28;5031506;28;20029;-69
2023/06/24 03:00:20;;;;;;;5.07;3.05;;;;;;;24.45;49.73;102351.69;5031244;28;20044;-69
2023/06/24 03:02:47;;;;;;;5.97;3.40;;;;;;;24.44;49.71;102357.97;5031609;28;20127;-68
2023/06/24 03:05:14;;;;;;;4.82;3.35;;;;;;;24.43;49.54;102369.59;5030532;28;20029;-69
2023/06/24 03:07:40;;;;;;;6.10;3.30;;;;;;;24.43;49.83;102372.28;5030709;28;20090;-66
2023/06/24 03:10:06;;;;;;;5.22;3.60;;;;;;;24.44;49.46;102373.97;5031563;28;20036;-70
2023/06/24 03:12:32;;;;;;;7.30;3.53;;;;;;;24.44;49.56;102374.81;5030892;28;20056;-70
2023/06/24 03:14:58;;;;;;;5.75;3.70;;;;;;;24.42;49.33;102373.25;5030610;28;20065;-69
2023/06/24 03:17:24;;;;;;;5.07;3.70;;;;;;;24.41;49.49;102367.06;5030664;28;20053;-69
2023/06/24 03:19:50;;;;;;;5.07;3.63;;;;;;;24.41;49.67;102369.72;5030300;28;20044;-68
2023/06/24 03:22:17;;;;;;;5.38;3.63;;;;;;;24.38;49.67;102363.84;5030895;28;20033;-69
2023/06/24 03:24:42;;;;;;;5.40;3.70;;;;;;;24.41;49.48;102361.75;5031195;28;20029;-70
2023/06/24 03:27:07;;;;;;;5.75;3.83;;;;;;;24.43;49.30;102367.81;5031251;28;20041;-70
2023/06/24 03:29:33;;;;;;;5.07;3.27;;;;;;;24.42;49.22;102373.25;5031199;28;20033;-71
2023/06/24 03:31:59;;;;;;;5.88;3.40;;;;;;;24.40;49.26;102367.19;5031146;28;20286;-70
2023/06/24 03:34:26;;;;;;;5.32;3.58;;;;;;;24.37;49.40;102359.47;5030076;28;20083;-70
2023/06/24 03:36:54;;;;;;;4.55;3.30;;;;;;;24.41;49.55;102364.41;5030666;28;20033;-69
2023/06/24 03:39:20;;;;;;;6.15;3.85;;;;;;;24.40;49.13;102359.22;5036294;28;20083;-69
2023/06/24 03:41:46;;;;;;;5.97;3.53;;;;;;;24.39;49.10;102355.72;5037200;28;20083;-69
2023/06/24 03:44:11;;;;;;;5.25;3.35;;;;;;;24.39;49.08;102358.38;5037180;28;20041;-70
2023/06/24 03:46:36;;;;;;;7.35;3.60;;;;;;;24.40;49.37;102359.22;5037821;28;20159;-70
2023/06/24 03:49:02;;;;;;;6.43;3.80;;;;;;;24.40;49.07;102364.53;5037425;28;20056;-71
2023/06/24 03:51:27;;;;;;;4.78;3.47;;;;;;;24.38;49.38;102364.66;5037174;28;20400;-69
2023/06/24 03:53:52;;;;;;;5.55;3.53;;;;;;;24.39;49.36;102370.84;5037413;28;20049;-70
2023/06/24 03:56:18;;;;;;;5.20;3.70;;;;;;;24.38;49.52;102367.31;5038009;28;20056;-70
2023/06/24 03:58:43;;;;;;;5.18;3.60;;;;;;;24.39;49.31;102370.84;5037907;28;20090;-70
2023/06/24 04:01:09;;;;;;;5.70;3.58;;;;;;;24.38;49.25;102374.47;5037067;28;20040;-69
2023/06/24 04:03:35;;;;;;;5.50;3.50;;;;;;;24.38;49.04;102377.16;5037768;28;20033;-71
2023/06/24 04:06:03;;;;;;;5.38;3.72;;;;;;;24.37;48.95;102375.44;5037268;28;20064;-69
2023/06/24 04:08:29;;;;;;;5.85;3.83;;;;;;;24.37;49.01;102381.66;5037026;28;20469;-68
2023/06/24 04:11:03;;;;;;;5.63;3.90;;;;;;;24.37;49.07;102380.78;5036816;28;20033;-69
2023/06/24 04:13:28;;;;;;;5.82;3.95;;;;;;;24.38;49.39;102370.00;5037184;28;20029;-69
2023/06/24 04:15:53;;;;;;;6.50;3.50;;;;;;;24.36;49.28;102379.09;5036699;28;20048;-69
2023/06/24 04:18:19;;;;;;;5.68;3.78;;;;;;;24.34;48.94;102373.91;5035820;28;20076;-70
2023/06/24 04:20:44;;;;;;;6.13;3.72;;;;;;;24.36;49.09;102371.94;5035859;28;20149;-70
2023/06/24 04:23:10;;;;;;;5.32;3.38;;;;;;;24.34;48.91;102371.25;5037625;28;20048;-70
2023/06/24 04:25:36;;;;;;;5.20;3.63;;;;;;;24.35;49.10;102380.06;5037435;28;20033;-69
2023/06/24 04:28:04;;;;;;;5.63;3.78;;;;;;;24.31;48.89;102375.97;5036876;28;20037;-71
2023/06/24 04:30:30;;;;;;;5.55;3.65;;;;;;;24.35;49.09;102382.72;5036745;28;20029;-71
2023/06/24 04:32:55;;;;;;;5.10;3.72;;;;;;;24.33;48.95;102376.69;5036904;28;20034;-71
2023/06/24 04:35:32;;;;;;;5.35;3.67;;;;;;;24.33;49.24;102382.03;5036247;28;20092;-69
2023/06/24 04:37:58;;;;;;;6.90;3.60;;;;;;;24.34;49.25;102381.03;5037264;28;20128;-70
2023/06/24 04:40:23;;;;;;;5.68;3.60;;;;;;;24.31;49.33;102376.81;5043913;28;20104;-70
2023/06/24 04:42:48;;;;;;;8.90;3.80;;;;;;;24.35;49.42;102374.75;5036922;28;20063;-70
2023/06/24 04:45:14;;;;;;;5.88;3.38;;;;;;;24.34;49.26;102378.38;5036821;28;20063;-71
2023/06/24 04:47:39;;;;;;;6.05;3.65;;;;;;;24.35;49.01;102382.72;5037041;28;20041;-69
2023/06/24 04:50:05;;;;;;;7.07;4.00;;;;;;;24.33;49.44;102379.38;5032342;28;20029;-69
2023/06/24 04:52:31;;;;;;;6.70;4.18;;;;;;;24.32;48.89;102378.50;5033877;28;20021;-69
2023/06/24 04:54:56;;;;;;;7.70;4.20;;;;;;;24.33;49.55;102374.03;5033587;28;20039;-69
2023/06/24 04:57:29;;;;;;;5.13;3.83;;;;;;;24.31;48.95;102371.50;5033531;28;20101;-70
2023/06/24 04:59:55;;;;;;;7.13;3.85;;;;;;;24.33;49.14;102372.22;5033602;28;20036;-69
2023/06/24 05:02:21;;;;;;;5.43;3.60;;;;;;;24.32;48.94;102378.50;5033817;28;20434;-69
2023/06/24 05:04:46;;;;;;;6.00;3.70;;;;;;;24.33;49.35;102376.69;5033087;28;20116;-69
2023/06/24 05:07:12;;;;;;;6.07;3.85;;;;;;;24.31;48.88;102368.84;5033180;28;20056;-71
2023/06/24 05:09:37;;;;;;;6.30;3.58;;;;;;;24.33;49.28;102374.03;5033799;28;20112;-69
2023/06/24 05:12:06;;;;;;;6.03;4.00;;;;;;;24.30;49.29;102376.97;5034117;28;20039;-69
2023/06/24 05:14:33;;;;;;;5.38;4.05;;;;;;;24.33;48.89;102384.69;5032759;28;20036;-71
2023/06/24 05:16:59;;;;;;;5.20;3.92;;;;;;;24.31;49.10;102376.81;5032497;28;20120;-69
2023/06/24 05:19:24;;;;;;;5.37;3.57;;;;;;;24.32;48.95;102375.00;5033357;28;20128;-69
2023/06/24 05:21:49;;;;;;;6.28;4.32;;;;;;;24.32;48.81;102378.50;5033376;28;20274;-69
2023/06/24 05:24:15;;;;;;;5.55;3.83;;;;;;;24.31;49.24;102376.81;5032893;28;20112;-70
2023/06/24 05:26:40;;;;;;;5.80;3.97;;;;;;;24.31;49.43;102370.63;5033481;28;20389;-69
2023/06/24 05:29:06;;;;;;;5.38;3.67;;;;;;;24.31;48.97;102373.28;5033115;28;20266;-70
2023/06/24 05:31:31;;;;;;;6.65;3.83;;;;;;;24.32;49.22;102383.81;5033029;28;20021;-69
2023/06/24 05:33:56;;;;;;;5.28;3.65;;;;;;;24.32;49.36;102375.00;5033013;28;20088;-72
2023/06/24 05:36:22;;;;;;;5.83;4.03;;;;;;;24.32;49.10;102378.50;5032972;28;20477;-71
2023/06/24 05:38:48;;;;;;;6.22;3.95;;;;;;;24.32;49.18;102381.16;5032797;28;20267;-69
2023/06/24 05:41:14;;;;;;;5.93;3.75;;;;;;;24.30;48.98;102379.63;5032747;28;20036;-69
2023/06/24 05:43:39;;;;;;;6.03;3.90;;;;;;;24.32;48.92;102385.66;5032488;28;20037;-68
2023/06/24 05:46:04;;;;;;;5.50;3.90;;;;;;;24.32;48.85;102389.16;5032819;28;20037;-70
2023/06/24 05:48:30;;;;;;;5.07;3.55;;;;;;;24.31;49.31;102387.47;5032248;28;20040;-68
2023/06/24 05:50:55;;;;;;;5.45;3.60;;;;;;;24.32;48.83;102394.47;5032675;28;20393;-70
2023/06/24 05:53:20;;;;;;;5.77;3.97;;;;;;;24.31;49.22;102387.47;5032865;28;20044;-69
2023/06/24 05:55:46;;;;;;;6.22;4.00;;;;;;;24.31;48.74;102386.63;5031956;28;20249;-70
2023/06/24 05:58:11;;;;;;;6.10;4.05;;;;;;;24.30;48.91;102391.09;5031893;28;20029;-69
2023/06/24 06:00:36;;;;;;;5.67;3.60;;;;;;;24.33;48.85;102387.34;5031793;28;20492;-68
2023/06/24 06:03:02;;;;;;;9.93;5.68;;;;;;;24.25;48.47;102388.00;5032027;28;20270;-68
2023/06/24 06:05:27;;;;;;;8.88;6.15;;;;;;;24.16;47.40;102388.75;5032039;28;20519;-68
2023/06/24 06:07:53;;;;;;;9.38;6.40;;;;;;;24.05;47.54;102387.84;5032820;28;21437;-68
2023/06/24 06:10:19;;;;;;;8.63;6.55;;;;;;;23.97;47.04;102392.09;5031972;28;20033;-70
2023/06/24 06:12:45;;;;;;;9.85;6.75;;;;;;;23.86;47.79;102390.31;5032601;28;20040;-69
2023/06/24 06:15:10;;;;;;;8.15;6.15;;;;;;;23.78;47.53;102395.38;5031600;28;20037;-68
2023/06/24 06:17:36;;;;;;;10.13;6.55;;;;;;;23.65;48.06;102392.88;5031820;28;20053;-69
2023/06/24 06:20:01;;;;;;;9.88;6.18;;;;;;;23.54;47.89;102396.41;5032323;28;20083;-70
2023/06/24 06:22:27;;;;;;;9.40;6.07;;;;;;;23.45;47.54;102405.09;5031843;28;20879;-72
2023/06/24 06:24:52;;;;;;;9.82;6.50;;;;;;;23.33;47.97;102393.66;5032331;28;20028;-71
2023/06/24 06:27:17;;;;;;;8.98;6.32;;;;;;;23.28;48.14;102398.50;5031951;28;20038;-71
2023/06/24 06:29:43;;;;;;;10.45;6.50;;;;;;;23.21;48.65;102397.25;5032478;28;20029;-73
2023/06/24 06:32:08;;;;;;;8.70;6.38;;;;;;;23.10;48.88;102400.78;5029054;28;20033;-69
2023/06/24 06:34:34;;;;;;;8.52;6.05;;;;;;;23.05;49.16;102398.47;5030501;28;20030;-65
2023/06/24 06:36:59;;;;;;;9.20;6.53;;;;;;;22.99;49.05;102398.94;5031007;28;20029;-67
2023/06/24 06:39:24;;;;;;;7.68;6.35;;;;;;;22.96;49.21;102402.66;5031432;28;20029;-66
2023/06/24 06:41:49;;;;;;;8.38;5.68;;;;;;;22.94;49.46;102404.59;5030224;28;20032;-67
2023/06/24 06:44:15;;;;;;;9.93;6.18;;;;;;;22.97;48.73;102404.38;5030996;28;20044;-68
2023/06/24 06:46:40;;;;;;;9.63;5.90;;;;;;;22.99;48.33;102406.91;5029066;28;20025;-68
2023/06/24 06:49:05;;;;;;;9.02;5.97;;;;;;;23.03;48.05;102412.81;5030391;28;20031;-68
2023/06/24 06:51:31;;;;;;;8.30;5.70;;;;;;;23.04;47.79;102411.88;5029581;28;20389;-68
2023/06/24 06:53:56;;;;;;;7.40;5.32;;;;;;;23.01;47.22;102411.13;5029744;28;20489;-69
2023/06/24 06:56:25;;;;;;;8.07;5.72;;;;;;;23.00;46.87;102412.09;5031339;28;20482;-67
2023/06/24 06:58:51;;;;;;;8.23;4.50;;;;;;;23.03;46.45;102416.31;5031679;28;20033;-68
2023/06/24 07:01:17;;;;;;;8.95;4.03;;;;;;;22.99;46.34;102410.41;5031385;28;20065;-67
2023/06/24 07:03:43;;;;;;;7.50;4.63;;;;;;;23.04;46.42;102423.34;5030877;28;20064;-68
2023/06/24 07:06:08;;;;;;;6.55;4.10;;;;;;;23.03;46.50;102416.31;5031506;28;20064;-68
2023/06/24 07:08:34;;;;;;;7.00;4.10;;;;;;;23.04;46.74;102428.66;5031423;28;20041;-71
2023/06/24 07:10:59;;;;;;;10.52;4.30;;;;;;;23.09;47.01;102431.00;5031432;28;20033;-68
2023/06/24 07:13:24;;;;;;;6.93;4.70;;;;;;;23.12;47.00;102436.91;5030249;28;20103;-70
2023/06/24 07:15:49;;;;;;;6.37;4.10;;;;;;;23.14;46.60;102434.13;5030726;28;20033;-69
2023/06/24 07:18:15;;;;;;;6.05;3.90;;;;;;;23.18;46.37;102433.78;5030865;28;20288;-68
2023/06/24 07:20:40;;;;;;;6.53;4.10;;;;;;;23.19;46.44;102434.63;5031563;28;20083;-68
2023/06/24 07:23:05;;;;;;;5.95;4.05;;;;;;;23.19;46.36;102429.31;5031189;28;20854;-67
2023/06/24 07:25:31;;;;;;;6.60;3.95;;;;;;;23.20;46.39;102427.50;5031079;28;20104;-70
2023/06/24 07:27:56;;;;;;;7.20;4.30;;;;;;;23.20;46.81;102424.84;5031053;28;20037;-68
2023/06/24 07:30:21;;;;;;;9.80;4.90;;;;;;;23.19;46.11;102426.63;5030846;28;20033;-67
2023/06/24 07:32:47;;;;;;;7.40;4.20;;;;;;;23.22;46.78;102430.88;5031737;28;20041;-68
2023/06/24 07:35:13;;;;;;;6.15;3.80;;;;;;;23.22;46.58;102422.91;5030473;28;20037;-70
2023/06/24 07:37:38;;;;;;;7.65;3.80;;;;;;;23.23;46.38;102422.78;5030969;28;20132;-67
2023/06/24 07:40:05;;;;;;;6.57;4.35;;;;;;;23.25;45.87;102434.16;5030612;28;20072;-68
2023/06/24 07:42:31;;;;;;;10.30;4.65;;;;;;;23.25;46.13;102422.66;5031056;28;20387;-68
2023/06/24 07:44:56;;;;;;;7.23;4.50;;;;;;;23.27;46.19;102420.72;5030530;28;21258;-68
2023/06/24 07:47:21;;;;;;;6.70;4.25;;;;;;;23.29;46.47;102430.28;5031025;28;20262;-66
2023/06/24 07:49:47;;;;;;;6.70;4.43;;;;;;;23.31;46.04;102432.81;5030440;28;20041;-67
2023/06/24 07:52:12;;;;;;;7.72;3.97;;;;;;;23.32;45.84;102426.53;5029607;28;20037;-65
2023/06/24 07:54:38;;;;;;;6.78;3.65;;;;;;;23.34;45.59;102427.28;5030402;28;20441;-68
2023/06/24 07:57:03;;;;;;;6.47;3.92;;;;;;;23.32;45.55;102424.72;5029154;28;20040;-66
2023/06/24 07:59:29;;;;;;;7.78;3.67;;;;;;;23.35;45.47;102426.28;5028172;28;20029;-67
2023/06/24 08:01:54;;;;;;;5.95;3.60;;;;;;;23.37;45.77;102424.38;5030823;28;20028;-67
2023/06/24 08:04:19;;;;;;;6.50;3.30;;;;;;;23.41;46.01;102424.97;5030483;28;20098;-67
2023/06/24 08:06:45;;;;;;;6.50;3.00;;;;;;;23.43;45.45;102423.00;5029453;28;20222;-67
2023/06/24 08:09:10;;;;;;;6.35;3.03;;;;;;;23.48;46.01;102431.47;5021569;28;20037;-69
2023/06/24 08:11:36;;;;;;;5.55;2.70;;;;;;;23.52;45.85;102419.63;5029816;28;20873;-67
2023/06/24 08:14:01;;;;;;;4.80;2.50;;;;;;;23.57;46.27;102413.94;5029289;28;20789;-71
2023/06/24 08:16:27;;;;;;;4.65;2.35;;;;;;;23.64;46.07;102417.78;5027864;28;20805;-71
2023/06/24 08:18:53;;;;;;;4.20;2.00;;;;;;;23.69;46.14;102412.97;5029922;28;20107;-68
2023/06/24 08:21:18;;;;;;;4.55;2.42;;;;;;;23.75;46.20;102416.94;5029541;28;20457;-65
2023/06/24 08:23:44;;;;;;;6.20;2.50;;;;;;;23.77;46.43;102413.19;5029525;28;20452;-66
2023/06/24 08:26:09;;;;;;;4.35;2.20;;;;;;;23.83;46.30;102417.16;5033442;28;20025;-68
2023/06/24 08:28:35;;;;;;;4.70;2.70;;;;;;;23.84;46.00;102403.75;5033159;28;20196;-68
2023/06/24 08:31:00;;;;;;;4.13;2.20;;;;;;;23.92;46.54;102408.44;5032798;28;20025;-68
2023/06/24 08:33:28;;;;;;;4.70;2.25;;;;;;;23.95;46.32;102405.53;5033227;28;20474;-68
2023/06/24 08:35:53;;;;;;;4.82;2.25;;;;;;;23.99;46.23;102403.47;5033720;28;20033;-67
2023/06/24 08:38:19;;;;;;;4.80;2.05;;;;;;;24.01;46.64;102399.72;5033453;28;20427;-69
2023/06/24 08:40:46;;;;;;;5.73;2.33;;;;;;;24.04;46.03;102411.94;5033669;28;20033;-69
2023/06/24 08:43:11;;;;;;;4.68;2.40;;;;;;;24.08;46.31;102413.34;5032815;28;20270;-70
2023/06/24 08:45:36;;;;;;;3.90;2.00;;;;;;;24.09;46.44;102402.56;5033239;28;20036;-67
2023/06/24 08:48:03;;;;;;;3.97;2.00;;;;;;;24.13;46.32;102402.31;5033545;28;20063;-67
2023/06/24 08:50:36;;;;;;;5.32;2.55;;;;;;;24.13;46.56;102397.00;5032570;28;20522;-67
2023/06/24 08:53:08;;;;;;;4.50;2.40;;;;;;;24.18;46.50;102400.97;5032047;28;20067;-69
2023/06/24 08:55:39;;;;;;;4.00;2.17;;;;;;;24.21;46.39;102391.88;5031981;28;20026;-68
2023/06/24 08:58:04;;;;;;;4.15;2.10;;;;;;;24.24;46.73;102395.16;5033690;28;20036;-68
2023/06/24 09:00:30;;;;;;;4.57;1.80;;;;;;;24.26;46.25;102400.34;5032709;28;20029;-67
2023/06/24 09:02:55;;;;;;;4.15;2.33;;;;;;;24.31;46.35;102400.81;5032825;28;20037;-71
2023/06/24 09:05:21;;;;;;;4.63;2.22;;;;;;;24.31;46.05;102402.59;5032663;28;20047;-71
2023/06/24 09:07:46;;;;;;;5.45;1.90;;;;;;;24.32;46.46;102393.66;5033624;28;20037;-68
2023/06/24 09:10:29;;;;;;;4.63;2.05;;;;;;;24.35;46.14;102388.06;5032395;28;20037;-70
2023/06/24 09:12:54;;;;;;;4.13;2.03;;;;;;;24.39;46.33;102398.34;5032733;28;20127;-67
2023/06/24 09:15:20;;;;;;;4.10;2.10;;;;;;;24.41;46.36;102392.88;5032334;28;20565;-67
2023/06/24 09:17:48;;;;;;;3.85;2.15;;;;;;;24.41;45.99;102392.88;5032286;28;20061;-67
2023/06/24 09:20:13;;;;;;;4.30;2.10;;;;;;;24.42;46.39;102395.41;5032539;28;20124;-68
2023/06/24 09:22:41;;;;;;;3.67;2.00;;;;;;;24.43;46.09;102386.47;5033514;28;20119;-65
2023/06/24 09:25:07;;;;;;;4.85;1.77;;;;;;;24.45;46.31;102387.16;5032374;28;20029;-65
2023/06/24 09:27:33;;;;;;;4.28;2.20;;;;;;;24.45;46.13;102381.00;5032121;28;20458;-68
2023/06/24 09:29:58;;;;;;;3.20;1.83;;;;;;;24.51;46.21;102383.13;5030848;28;20036;-68
2023/06/24 09:32:29;;;;;;;4.75;2.20;;;;;;;24.52;46.06;102378.66;5032058;28;20067;-68
2023/06/24 09:34:54;;;;;;;4.75;2.10;;;;;;;24.53;46.32;102375.84;5032220;28;20038;-68
2023/06/24 09:37:23;;;;;;;3.88;2.00;;;;;;;24.51;45.89;102371.63;5031469;28;20109;-69
2023/06/24 09:39:49;;;;;;;4.18;1.83;;;;;;;24.52;46.33;102366.16;5032678;28;20118;-69
2023/06/24 09:42:14;;;;;;;4.22;1.85;;;;;;;24.50;46.36;102362.78;5032230;28;20037;-67
2023/06/24 09:44:40;;;;;;;4.15;2.03;;;;;;;24.51;46.15;102358.31;5032295;28;20037;-66
2023/06/24 09:47:05;;;;;;;3.85;1.92;;;;;;;24.52;46.23;102363.50;5031663;28;20029;-67
2023/06/24 09:49:31;;;;;;;4.28;1.70;;;;;;;24.52;46.52;102358.16;5032037;28;20540;-67
2023/06/24 09:51:59;;;;;;;4.10;1.90;;;;;;;24.51;46.42;102366.28;5032544;28;20030;-68
2023/06/24 09:54:27;;;;;;;4.03;2.00;;;;;;;24.50;46.27;102361.94;5031587;28;20092;-68
2023/06/24 09:56:54;;;;;;;4.40;1.90;;;;;;;24.51;46.10;102355.63;5032004;28;20166;-68
2023/06/24 09:59:21;;;;;;;3.78;1.70;;;;;;;24.50;46.16;102356.59;5032954;28;20037;-68
2023/06/24 10:01:48;;;;;;;3.70;1.83;;;;;;;24.50;46.52;102349.47;5031348;28;20040;-68
2023/06/24 10:04:16;;;;;;;3.53;1.85;;;;;;;24.49;46.15;102357.59;5029605;28;20037;-68
2023/06/24 10:06:42;;;;;;;3.47;1.73;;;;;;;24.51;46.19;102363.63;5032415;28;20029;-68
2023/06/24 10:09:08;;;;;;;4.20;1.83;;;;;;;24.51;46.53;102360.97;5032091;28;20033;-67
2023/06/24 10:11:34;;;;;;;4.93;1.95;;;;;;;24.49;46.08;102344.28;5032258;28;20034;-67
2023/06/24 10:14:00;;;;;;;3.80;1.85;;;;;;;24.50;46.16;102352.13;5032159;28;20155;-68
2023/06/24 10:16:25;;;;;;;3.63;1.77;;;;;;;24.49;46.24;102355.75;5031605;28;20041;-68
2023/06/24 10:18:51;;;;;;;4.18;1.77;;;;;;;24.47;46.38;102356.84;5031535;28;20132;-67
2023/06/24 10:21:16;;;;;;;4.45;2.00;;;;;;;24.48;46.11;102356.72;5031864;28;20053;-67
2023/06/24 10:23:52;;;;;;;4.60;2.03;;;;;;;24.44;46.36;102356.16;5031748;28;20124;-67
2023/06/24 10:26:24;;;;;;;6.05;2.00;;;;;;;24.47;46.38;102354.19;5031875;28;20029;-66
2023/06/24 10:29:05;;;;;;;5.07;2.10;;;;;;;24.49;46.56;102360.25;5031096;28;20397;-67
2023/06/24 10:31:39;;;;;;;4.93;2.20;;;;;;;24.47;46.42;102348.88;5032408;28;20112;-68
2023/06/24 10:34:22;;;;;;;3.42;1.67;;;;;;;24.49;46.40;102349.59;5030978;28;20076;-67
2023/06/24 10:36:55;;;;;;;3.80;2.00;;;;;;;24.48;46.43;102345.25;5029886;28;20553;-66
2023/06/24 10:39:44;;;;;;;3.42;1.80;;;;;;;24.49;45.84;102339.78;5029261;28;20043;-67
2023/06/24 10:42:42;;;;;;;3.65;1.80;;;;;;;24.49;46.35;102339.78;5031092;28;20940;-67
2023/06/24 10:45:18;;;;;;;4.22;2.13;;;;;;;24.50;46.54;102340.63;5031087;28;20059;-67
2023/06/24 10:47:56;;;;;;;8.98;2.30;;;;;;;24.51;46.40;102336.97;5030876;28;20466;-66
2023/06/24 10:50:23;;;;;;;8.45;2.97;;;;;;;24.53;46.50;102335.88;5031204;28;20044;-67
2023/06/24 10:52:55;;;;;;;8.15;3.17;;;;;;;24.54;46.42;102326.06;5031156;28;20037;-68
2023/06/24 10:55:22;;;;;;;11.00;3.03;;;;;;;24.55;46.70;102330.44;5031175;28;20103;-69
2023/06/24 10:57:47;;;;;;;6.50;2.70;;;;;;;24.57;46.81;102328.50;5028083;28;20523;-68
2023/06/24 11:00:15;;;;;;;8.90;2.97;;;;;;;24.55;46.64;102325.94;5029711;28;20033;-67
2023/06/24 11:02:41;;;;;;;8.70;2.67;;;;;;;24.59;46.55;102331.88;5031518;28;20025;-68
2023/06/24 11:05:07;;;;;;;7.50;2.85;;;;;;;24.59;46.39;102326.53;5030733;28;20063;-68
2023/06/24 11:07:36;;;;;;;8.50;2.80;;;;;;;24.58;46.19;102322.19;5031522;28;20038;-68
2023/06/24 11:10:02;;;;;;;6.88;2.83;;;;;;;24.59;46.51;102322.06;5031450;28;20448;-67
2023/06/24 11:12:32;;;;;;;5.60;2.53;;;;;;;24.54;46.48;102310.06;5030386;28;20067;-68
2023/06/24 11:15:00;;;;;;;8.50;2.63;;;;;;;24.56;46.12;102311.66;5030472;28;20302;-67
2023/06/24 11:17:27;;;;;;;6.85;2.60;;;;;;;24.57;46.69;102317.84;5030716;28;20456;-66
2023/06/24 11:19:53;;;;;;;5.68;2.45;;;;;;;24.57;46.46;102313.34;5030931;28;20043;-67
2023/06/24 11:22:19;;;;;;;6.88;2.28;;;;;;;24.55;46.54;102315.28;5029841;28;20029;-69
2023/06/24 11:24:44;;;;;;;5.38;2.55;;;;;;;24.57;46.36;102302.69;5030931;28;20366;-69